createdAt,value
2023-09-11T00:00:14.128Z,6.30
2023-09-11T00:02:40.841Z,5.53
2023-09-11T00:05:08.149Z,5.07
2023-09-11T00:07:34.882Z,5.45
2023-09-11T00:10:07.837Z,5.93
2023-09-11T00:12:34.558Z,5.93
2023-09-11T00:15:01.585Z,6.13
2023-09-11T00:17:28.556Z,5.95
2023-09-11T00:19:55.660Z,6.38
2023-09-11T00:22:22.859Z,6.10
2023-09-11T00:24:49.644Z,5.85
2023-09-11T00:27:16.472Z,5.93
2023-09-11T00:29:43.327Z,5.93
2023-09-11T00:32:10.047Z,6.05
2023-09-11T00:34:36.828Z,5.75
2023-09-11T00:37:03.723Z,5.72
2023-09-11T00:39:30.451Z,6.20
2023-09-11T00:41:57.278Z,5.72
2023-09-11T00:44:24.546Z,5.63
2023-09-11T00:46:51.609Z,6.18
2023-09-11T00:49:20.958Z,5.97
2023-09-11T00:51:49.175Z,5.40
2023-09-11T00:54:16.182Z,5.60
2023-09-11T00:56:43.049Z,6.22
2023-09-11T00:59:11.811Z,5.78
2023-09-11T01:01:38.643Z,5.78
2023-09-11T01:04:05.693Z,6.10
2023-09-11T01:06:33.125Z,5.95
2023-09-11T01:09:02.941Z,6.38
2023-09-11T01:11:30.043Z,6.60
2023-09-11T01:14:02.283Z,5.82
2023-09-11T01:16:44.714Z,6.50
2023-09-11T01:19:37.957Z,6.40
2023-09-11T01:22:05.413Z,6.32
2023-09-11T01:24:39.375Z,6.53
2023-09-11T01:27:18.155Z,6.63
2023-09-11T01:29:46.084Z,6.13
2023-09-11T01:32:14.376Z,6.43
2023-09-11T01:34:41.290Z,6.25
2023-09-11T01:37:07.962Z,6.70
2023-09-11T01:39:34.725Z,6.95
2023-09-11T01:42:11.065Z,7.13
2023-09-11T01:44:44.718Z,6.60
2023-09-11T01:47:15.477Z,6.30
2023-09-11T01:49:44.145Z,6.63
2023-09-11T01:52:12.407Z,6.43
2023-09-11T01:54:39.629Z,6.55
2023-09-11T01:57:07.946Z,6.63
2023-09-11T01:59:35.088Z,7.07
2023-09-11T02:02:02.080Z,6.53
2023-09-11T02:04:29.946Z,6.15
2023-09-11T02:06:56.611Z,7.03
2023-09-11T02:09:23.651Z,6.38
2023-09-11T02:11:50.425Z,6.65
2023-09-11T02:14:17.182Z,6.72
2023-09-11T02:16:43.955Z,6.03
2023-09-11T02:19:13.640Z,6.72
2023-09-11T02:21:40.292Z,7.10
2023-09-11T02:24:07.371Z,6.43
2023-09-11T02:26:34.083Z,5.75
2023-09-11T02:29:01.062Z,5.97
2023-09-11T02:31:28.278Z,6.10
2023-09-11T02:33:58.484Z,5.95
2023-09-11T02:36:25.246Z,5.75
2023-09-11T02:38:51.904Z,5.47
2023-09-11T02:41:18.951Z,5.60
2023-09-11T02:43:45.910Z,6.88
2023-09-11T02:46:12.777Z,5.78
2023-09-11T02:48:47.192Z,6.10
2023-09-11T02:51:15.164Z,6.65
2023-09-11T02:53:42.234Z,6.70
2023-09-11T02:56:09.084Z,6.15
2023-09-11T02:58:36.005Z,6.20
2023-09-11T03:01:04.287Z,6.55
2023-09-11T03:03:32.186Z,6.43
2023-09-11T03:06:03.305Z,6.97
2023-09-11T03:08:30.354Z,6.43
2023-09-11T03:11:11.598Z,6.93
2023-09-11T03:13:40.029Z,7.10
2023-09-11T03:16:12.604Z,6.70
2023-09-11T03:18:42.123Z,6.47
2023-09-11T03:21:09.904Z,6.20
2023-09-11T03:23:37.596Z,6.60
2023-09-11T03:26:13.128Z,6.57
2023-09-11T03:28:40.327Z,6.55
2023-09-11T03:31:07.233Z,6.00
2023-09-11T03:33:34.111Z,6.30
2023-09-11T03:36:01.067Z,6.78
2023-09-11T03:38:28.014Z,6.53
2023-09-11T03:40:54.981Z,7.55
2023-09-11T03:43:24.498Z,6.45
2023-09-11T03:45:53.946Z,6.95
2023-09-11T03:48:20.908Z,7.40
2023-09-11T03:50:47.733Z,7.18
2023-09-11T03:53:14.481Z,6.82
2023-09-11T03:55:44.141Z,6.97
2023-09-11T03:58:12.115Z,7.03
2023-09-11T04:00:38.878Z,6.90
2023-09-11T04:03:06.149Z,6.22
2023-09-11T04:05:32.972Z,6.80
2023-09-11T04:07:59.965Z,6.60
2023-09-11T04:10:26.654Z,5.65
2023-09-11T04:12:53.483Z,6.88
2023-09-11T04:15:20.435Z,7.07
2023-09-11T04:17:47.477Z,6.30
2023-09-11T04:20:14.196Z,6.18
2023-09-11T04:22:41.108Z,6.38
2023-09-11T04:25:08.191Z,6.50
2023-09-11T04:27:35.034Z,6.85
2023-09-11T04:30:02.212Z,6.15
2023-09-11T04:32:29.176Z,6.32
2023-09-11T04:34:56.105Z,6.82
2023-09-11T04:37:23.004Z,6.88
2023-09-11T04:39:49.761Z,6.13
2023-09-11T04:42:16.769Z,6.63
2023-09-11T04:44:43.568Z,6.25
2023-09-11T04:47:10.360Z,7.55
2023-09-11T04:49:37.659Z,7.20
2023-09-11T04:52:04.677Z,6.93
2023-09-11T04:54:31.366Z,7.05
2023-09-11T04:56:58.641Z,7.18
2023-09-11T04:59:25.464Z,7.50
2023-09-11T05:01:52.311Z,6.70
2023-09-11T05:04:19.197Z,6.75
2023-09-11T05:06:46.070Z,6.68
2023-09-11T05:09:16.093Z,6.38
2023-09-11T05:11:46.121Z,6.32
2023-09-11T05:14:14.798Z,5.93
2023-09-11T05:16:41.573Z,7.45
2023-09-11T05:19:08.520Z,7.15
2023-09-11T05:21:35.346Z,6.53
2023-09-11T05:24:03.042Z,6.78
2023-09-11T05:26:30.216Z,6.65
2023-09-11T05:28:56.978Z,6.60
2023-09-11T05:31:23.742Z,5.95
2023-09-11T05:33:50.499Z,6.10
2023-09-11T05:36:19.483Z,6.88
2023-09-11T05:38:48.663Z,6.93
2023-09-11T05:41:15.512Z,6.82
2023-09-11T05:43:42.578Z,6.32
2023-09-11T05:46:09.594Z,6.53
2023-09-11T05:48:36.391Z,7.13
2023-09-11T05:51:03.542Z,7.50
2023-09-11T05:53:30.368Z,6.50
2023-09-11T05:55:58.808Z,6.63
2023-09-11T05:58:26.259Z,6.60
2023-09-11T06:00:56.126Z,6.70
2023-09-11T06:03:23.030Z,6.72
2023-09-11T06:05:49.925Z,7.35
2023-09-11T06:08:16.741Z,6.47
2023-09-11T06:10:44.796Z,7.25
2023-09-11T06:13:11.515Z,7.38
2023-09-11T06:15:38.436Z,7.75
2023-09-11T06:18:05.692Z,8.05
2023-09-11T06:20:32.979Z,8.13
2023-09-11T06:22:59.800Z,8.65
2023-09-11T06:25:26.577Z,8.38
2023-09-11T06:27:53.460Z,8.27
2023-09-11T06:30:20.482Z,9.15
2023-09-11T06:32:47.381Z,9.05
2023-09-11T06:35:14.164Z,8.68
2023-09-11T06:37:42.000Z,8.43
2023-09-11T06:40:10.811Z,9.50
2023-09-11T06:42:38.090Z,9.80
2023-09-11T06:45:06.112Z,8.27
2023-09-11T06:47:33.103Z,9.38
2023-09-11T06:50:00.530Z,8.90
2023-09-11T06:52:27.311Z,8.65
2023-09-11T06:54:55.707Z,8.52
2023-09-11T06:57:23.588Z,8.25
2023-09-11T06:59:50.322Z,8.27
2023-09-11T07:02:17.071Z,8.30
2023-09-11T07:04:43.837Z,8.00
2023-09-11T07:07:10.569Z,7.20
2023-09-11T07:09:37.312Z,7.10
2023-09-11T07:12:04.270Z,8.05
2023-09-11T07:14:31.341Z,7.47
2023-09-11T07:17:01.916Z,8.40
2023-09-11T07:19:31.697Z,8.23
2023-09-11T07:21:58.544Z,7.65
2023-09-11T07:24:25.195Z,8.82
2023-09-11T07:26:52.005Z,7.70
2023-09-11T07:29:18.888Z,7.43
2023-09-11T07:31:47.714Z,6.88
2023-09-11T07:34:15.847Z,6.63
2023-09-11T07:36:45.256Z,6.43
2023-09-11T07:39:12.044Z,6.18
2023-09-11T07:41:38.809Z,6.47
2023-09-11T07:44:05.661Z,6.68
2023-09-11T07:46:32.511Z,6.80
2023-09-11T07:49:00.532Z,6.82
2023-09-11T07:51:27.636Z,5.93
2023-09-11T07:53:54.399Z,5.75
2023-09-11T07:56:21.281Z,6.82
2023-09-11T07:58:51.344Z,6.45
2023-09-11T08:01:23.079Z,6.00
2023-09-11T08:03:50.219Z,6.00
2023-09-11T08:06:17.200Z,5.82
2023-09-11T08:08:47.098Z,6.25
2023-09-11T08:11:21.231Z,5.78
2023-09-11T08:13:49.291Z,5.75
2023-09-11T08:16:17.687Z,5.50
2023-09-11T08:18:45.051Z,5.20
2023-09-11T08:21:13.393Z,5.18
2023-09-11T08:23:43.234Z,4.88
2023-09-11T08:26:10.496Z,5.18
2023-09-11T08:28:37.658Z,5.38
2023-09-11T08:31:04.886Z,5.30
2023-09-11T08:33:44.651Z,5.65
2023-09-11T08:36:18.956Z,5.57
2023-09-11T08:38:46.523Z,5.07
2023-09-11T08:41:15.108Z,5.43
2023-09-11T08:43:41.911Z,5.55
2023-09-11T08:46:11.520Z,5.00
2023-09-11T08:48:44.860Z,4.97
2023-09-11T08:51:48.059Z,4.70
2023-09-11T08:54:18.087Z,5.05
2023-09-11T08:56:46.802Z,5.38
2023-09-11T08:59:18.482Z,5.80
2023-09-11T09:01:47.851Z,4.82
2023-09-11T09:04:19.705Z,5.15
2023-09-11T09:06:48.076Z,4.97
2023-09-11T09:09:14.948Z,5.00
2023-09-11T09:11:49.187Z,4.85
2023-09-11T09:14:20.217Z,5.70
2023-09-11T09:16:48.219Z,4.85
2023-09-11T09:19:15.092Z,5.22
2023-09-11T09:22:12.108Z,5.05
2023-09-11T09:24:50.825Z,5.22
2023-09-11T09:27:18.131Z,4.72
2023-09-11T09:29:45.877Z,5.25
2023-09-11T09:32:13.298Z,5.00
2023-09-11T09:34:51.364Z,4.53
2023-09-11T09:37:19.721Z,5.20
2023-09-11T09:39:49.314Z,4.82
2023-09-11T09:42:16.759Z,4.80
2023-09-11T09:44:48.696Z,4.80
2023-09-11T09:47:21.156Z,5.22
2023-09-11T09:49:54.707Z,4.78
2023-09-11T09:52:26.017Z,5.30
2023-09-11T09:54:59.047Z,5.00
2023-09-11T09:57:28.009Z,4.78
2023-09-11T09:59:59.775Z,4.60
2023-09-11T10:02:29.612Z,4.45
2023-09-11T10:05:03.975Z,4.25
2023-09-11T10:07:39.834Z,4.70
2023-09-11T10:10:26.408Z,4.45
2023-09-11T10:13:02.654Z,3.97
2023-09-11T10:15:30.879Z,4.55
2023-09-11T10:17:58.950Z,4.05
2023-09-11T10:20:26.911Z,4.35
2023-09-11T10:22:56.047Z,3.80
2023-09-11T10:25:23.629Z,4.13
2023-09-11T10:27:54.758Z,4.10
2023-09-11T10:30:25.650Z,3.95
2023-09-11T10:33:02.987Z,3.70
2023-09-11T10:35:34.286Z,3.78
2023-09-11T10:38:04.438Z,3.53
2023-09-11T10:40:33.175Z,3.67
2023-09-11T10:43:00.581Z,3.38
2023-09-11T10:45:28.298Z,4.05
2023-09-11T10:47:55.352Z,4.00
2023-09-11T10:50:30.455Z,3.70
2023-09-11T10:52:57.634Z,3.67
2023-09-11T10:55:25.531Z,3.95
2023-09-11T10:57:58.561Z,3.47
2023-09-11T11:00:27.528Z,3.58
2023-09-11T11:02:57.523Z,3.30
2023-09-11T11:05:27.042Z,3.65
2023-09-11T11:07:53.891Z,4.15
2023-09-11T11:10:21.112Z,3.20
2023-09-11T11:12:48.060Z,3.50
2023-09-11T11:15:25.058Z,3.30
2023-09-11T11:18:07.996Z,3.50
2023-09-11T11:20:35.994Z,3.40
2023-09-11T11:23:13.584Z,3.33
2023-09-11T11:25:43.676Z,3.38
2023-09-11T11:28:17.443Z,2.90
2023-09-11T11:30:45.834Z,3.28
2023-09-11T11:33:17.116Z,3.25
2023-09-11T11:35:47.673Z,3.40
2023-09-11T11:38:17.277Z,3.40
2023-09-11T11:40:45.145Z,3.20
2023-09-11T11:43:12.638Z,3.13
2023-09-11T11:45:44.881Z,3.13
2023-09-11T11:48:14.754Z,3.13
2023-09-11T11:50:46.314Z,3.63
2023-09-11T11:53:23.751Z,3.00
2023-09-11T11:55:52.583Z,3.15
2023-09-11T11:58:19.372Z,3.35
2023-09-11T12:01:01.314Z,3.40
2023-09-11T12:03:30.417Z,3.50
2023-09-11T12:05:59.637Z,3.33
2023-09-11T12:08:26.745Z,3.30
2023-09-11T12:10:54.057Z,3.20
2023-09-11T12:13:34.624Z,3.50
2023-09-11T12:16:11.026Z,3.40
2023-09-11T12:18:42.465Z,2.80
2023-09-11T12:21:09.521Z,3.00
2023-09-11T12:23:36.660Z,3.03
2023-09-11T12:26:04.781Z,3.55
2023-09-11T12:28:32.374Z,3.20
2023-09-11T12:30:59.499Z,3.45
2023-09-11T12:33:29.438Z,2.75
2023-09-11T12:35:56.968Z,2.97
2023-09-11T12:38:24.791Z,3.10
2023-09-11T12:40:54.816Z,2.92
2023-09-11T12:43:23.491Z,2.80
2023-09-11T12:45:51.294Z,3.15
2023-09-11T12:48:18.863Z,3.42
2023-09-11T12:50:46.074Z,3.08
2023-09-11T12:53:13.106Z,3.33
2023-09-11T12:55:39.883Z,3.22
2023-09-11T12:58:06.721Z,3.55
2023-09-11T13:00:35.457Z,4.00
2023-09-11T13:03:04.344Z,3.05
2023-09-11T13:05:32.054Z,3.35
2023-09-11T13:07:59.950Z,3.33
2023-09-11T13:10:27.738Z,3.38
2023-09-11T13:12:54.478Z,3.00
2023-09-11T13:15:21.606Z,3.47
2023-09-11T13:17:48.787Z,3.10
2023-09-11T13:20:15.775Z,3.25
2023-09-11T13:22:43.778Z,3.15
2023-09-11T13:25:13.729Z,3.20
2023-09-11T13:28:04.463Z,2.90
2023-09-11T13:30:33.095Z,3.08
2023-09-11T13:32:59.949Z,3.17
2023-09-11T13:35:27.132Z,3.20
2023-09-11T13:37:53.943Z,3.28
2023-09-11T13:40:22.184Z,3.10
2023-09-11T13:42:50.940Z,3.22
2023-09-11T13:45:18.389Z,3.08
2023-09-11T13:47:46.078Z,3.28
2023-09-11T13:50:13.118Z,3.40
2023-09-11T13:52:39.914Z,3.05
2023-09-11T13:55:07.698Z,2.95
2023-09-11T13:57:34.541Z,3.28
2023-09-11T14:00:01.463Z,3.10
2023-09-11T14:02:38.895Z,2.95
2023-09-11T14:05:06.268Z,3.13
2023-09-11T14:07:32.980Z,2.92
2023-09-11T14:09:59.989Z,3.15
2023-09-11T14:12:26.761Z,3.28
2023-09-11T14:14:53.528Z,3.00
2023-09-11T14:17:20.334Z,3.10
2023-09-11T14:19:47.141Z,3.00
2023-09-11T14:22:14.103Z,2.90
2023-09-11T14:24:41.262Z,3.55
2023-09-11T14:27:10.853Z,3.22
2023-09-11T14:29:37.671Z,3.53
2023-09-11T14:32:07.779Z,3.40
2023-09-11T14:34:35.766Z,3.53
2023-09-11T14:37:20.705Z,3.30
2023-09-11T14:39:49.604Z,3.20
2023-09-11T14:42:16.649Z,5.40
2023-09-11T14:44:43.501Z,3.95
2023-09-11T14:47:11.990Z,3.63
2023-09-11T14:49:38.735Z,3.45
2023-09-11T14:52:05.663Z,3.28
2023-09-11T14:54:42.873Z,3.40
2023-09-11T14:57:27.848Z,3.60
2023-09-11T14:59:54.665Z,3.28
2023-09-11T15:02:21.951Z,3.00
2023-09-11T15:04:51.106Z,3.50
2023-09-11T15:07:20.353Z,3.05
2023-09-11T15:09:48.863Z,3.13
2023-09-11T15:12:15.805Z,3.58
2023-09-11T15:14:43.230Z,3.10
2023-09-11T15:17:10.622Z,3.17
2023-09-11T15:19:37.768Z,3.00
2023-09-11T15:22:08.187Z,3.30
2023-09-11T15:24:35.865Z,2.70
2023-09-11T15:27:05.644Z,3.20
2023-09-11T15:29:32.439Z,3.25
2023-09-11T15:32:11.321Z,3.22
2023-09-11T15:34:43.785Z,3.25
2023-09-11T15:37:15.213Z,3.33
2023-09-11T15:39:43.059Z,3.17
2023-09-11T15:42:09.928Z,3.00
2023-09-11T15:44:36.765Z,2.90
2023-09-11T15:47:03.610Z,2.80
2023-09-11T15:49:30.415Z,3.45
2023-09-11T15:51:57.208Z,3.05
2023-09-11T15:54:25.339Z,3.00
2023-09-11T15:56:53.871Z,2.95
2023-09-11T15:59:20.913Z,2.70
2023-09-11T16:01:47.838Z,3.05
2023-09-11T16:04:14.916Z,2.72
2023-09-11T16:06:43.372Z,2.83
2023-09-11T16:09:10.316Z,5.15
2023-09-11T16:11:37.056Z,3.35
2023-09-11T16:14:03.911Z,10.88
2023-09-11T16:16:31.373Z,4.55
2023-09-11T16:18:58.217Z,3.65
2023-09-11T16:21:37.597Z,2.72
2023-09-11T16:24:08.108Z,3.08
2023-09-11T16:26:35.009Z,3.45
2023-09-11T16:29:01.730Z,3.05
2023-09-11T16:31:28.679Z,2.72
2023-09-11T16:33:55.784Z,2.72
2023-09-11T16:36:23.062Z,2.70
2023-09-11T16:38:49.870Z,2.80
2023-09-11T16:41:17.720Z,2.53
2023-09-11T16:43:44.472Z,2.42
2023-09-11T16:46:11.468Z,2.88
2023-09-11T16:48:38.337Z,2.63
2023-09-11T16:51:05.359Z,2.80
2023-09-11T16:53:32.426Z,2.70
2023-09-11T16:55:59.774Z,2.92
2023-09-11T16:58:26.629Z,2.97
2023-09-11T17:00:53.529Z,2.33
2023-09-11T17:03:20.550Z,2.70
2023-09-11T17:05:47.329Z,2.95
2023-09-11T17:08:14.142Z,2.53
2023-09-11T17:10:41.045Z,2.45
2023-09-11T17:13:10.185Z,2.80
2023-09-11T17:15:37.254Z,2.63
2023-09-11T17:18:04.367Z,3.03
2023-09-11T17:20:31.212Z,2.80
2023-09-11T17:22:57.981Z,2.72
2023-09-11T17:25:24.959Z,2.75
2023-09-11T17:27:51.749Z,3.08
2023-09-11T17:30:19.152Z,2.85
2023-09-11T17:32:47.620Z,3.28
2023-09-11T17:35:14.533Z,3.08
2023-09-11T17:37:41.271Z,2.95
2023-09-11T17:40:08.567Z,3.05
2023-09-11T17:42:35.686Z,2.88
2023-09-11T17:45:02.686Z,2.80
2023-09-11T17:47:29.523Z,3.17
2023-09-11T17:49:56.263Z,2.95
2023-09-11T17:52:23.112Z,2.60
2023-09-11T17:54:49.891Z,2.63
2023-09-11T17:57:16.725Z,3.17
2023-09-11T17:59:44.533Z,2.97
2023-09-11T18:02:11.273Z,3.63
2023-09-11T18:04:40.445Z,3.67
2023-09-11T18:07:08.288Z,3.70
2023-09-11T18:09:34.974Z,3.53
2023-09-11T18:12:01.951Z,3.28
2023-09-11T18:14:28.691Z,3.50
2023-09-11T18:16:55.490Z,3.63
2023-09-11T18:19:22.210Z,3.60
2023-09-11T18:21:48.921Z,6.32
2023-09-11T18:24:15.724Z,6.97
2023-09-11T18:26:43.388Z,3.40
2023-09-11T18:29:15.013Z,4.10
2023-09-11T18:31:42.320Z,3.75
2023-09-11T18:34:10.555Z,3.40
2023-09-11T18:36:38.518Z,2.97
2023-09-11T18:39:05.849Z,3.83
2023-09-11T18:41:32.732Z,3.78
2023-09-11T18:43:59.626Z,3.30
2023-09-11T18:46:26.488Z,3.90
2023-09-11T18:48:53.516Z,3.90
2023-09-11T18:51:20.558Z,4.13
2023-09-11T18:53:47.453Z,4.13
2023-09-11T18:56:14.367Z,3.65
2023-09-11T18:58:46.712Z,4.18
2023-09-11T19:01:13.606Z,4.10
2023-09-11T19:03:41.057Z,3.97
2023-09-11T19:06:08.443Z,3.88
2023-09-11T19:08:35.544Z,4.75
2023-09-11T19:11:02.310Z,3.63
2023-09-11T19:13:29.336Z,3.80
2023-09-11T19:15:56.162Z,3.97
2023-09-11T19:18:23.046Z,3.67
2023-09-11T19:20:49.875Z,3.90
2023-09-11T19:23:16.749Z,4.72
2023-09-11T19:25:43.495Z,4.50
2023-09-11T19:28:10.313Z,4.20
2023-09-11T19:30:38.196Z,4.18
2023-09-11T19:33:05.608Z,4.30
2023-09-11T19:35:32.566Z,4.32
2023-09-11T19:37:59.391Z,4.03
2023-09-11T19:40:26.062Z,4.15
2023-09-11T19:42:52.884Z,3.95
2023-09-11T19:45:19.943Z,3.88
2023-09-11T19:47:46.933Z,4.07
2023-09-11T19:50:14.982Z,3.83
2023-09-11T19:52:42.141Z,4.53
2023-09-11T19:55:09.016Z,4.07
2023-09-11T19:57:37.224Z,4.13
2023-09-11T20:00:04.768Z,3.92
2023-09-11T20:02:35.205Z,4.22
2023-09-11T20:05:03.479Z,4.35
2023-09-11T20:07:30.944Z,4.32
2023-09-11T20:09:59.861Z,3.78
2023-09-11T20:12:28.183Z,4.38
2023-09-11T20:14:55.155Z,4.15
2023-09-11T20:17:22.080Z,4.00
2023-09-11T20:19:49.175Z,4.00
2023-09-11T20:22:16.573Z,4.13
2023-09-11T20:24:43.383Z,4.30
2023-09-11T20:27:10.154Z,4.10
2023-09-11T20:29:37.794Z,4.22
2023-09-11T20:32:05.406Z,4.10
2023-09-11T20:34:32.490Z,4.63
2023-09-11T20:36:59.455Z,4.40
2023-09-11T20:39:27.384Z,4.57
2023-09-11T20:41:54.687Z,4.10
2023-09-11T20:44:21.735Z,4.50
2023-09-11T20:46:48.638Z,4.45
2023-09-11T20:49:15.420Z,4.20
2023-09-11T20:51:42.091Z,4.68
2023-09-11T20:54:10.354Z,4.55
2023-09-11T20:56:37.349Z,4.70
2023-09-11T20:59:04.241Z,4.75
2023-09-11T21:01:31.422Z,4.72
2023-09-11T21:03:58.580Z,4.30
2023-09-11T21:06:26.550Z,4.85
2023-09-11T21:08:53.511Z,4.82
2023-09-11T21:11:25.231Z,4.35
2023-09-11T21:13:52.329Z,4.47
2023-09-11T21:16:19.600Z,4.47
2023-09-11T21:18:46.775Z,4.70
2023-09-11T21:21:13.774Z,4.38
2023-09-11T21:23:40.598Z,4.22
2023-09-11T21:26:07.494Z,4.80
2023-09-11T21:28:34.489Z,4.38
2023-09-11T21:31:01.402Z,4.15
2023-09-11T21:33:29.672Z,4.22
2023-09-11T21:35:56.940Z,4.40
2023-09-11T21:38:23.938Z,4.10
2023-09-11T21:40:50.709Z,4.47
2023-09-11T21:43:17.443Z,4.15
2023-09-11T21:45:44.987Z,4.45
2023-09-11T21:48:12.544Z,4.05
2023-09-11T21:50:39.890Z,4.10
2023-09-11T21:53:06.625Z,4.43
2023-09-11T21:55:34.469Z,4.40
2023-09-11T21:58:01.346Z,3.67
2023-09-11T22:00:28.213Z,3.80
2023-09-11T22:02:55.047Z,4.03
2023-09-11T22:05:21.864Z,4.25
2023-09-11T22:07:48.524Z,4.13
2023-09-11T22:10:15.274Z,4.90
2023-09-11T22:12:42.118Z,4.50
2023-09-11T22:15:09.160Z,4.30
2023-09-11T22:17:35.893Z,4.57
2023-09-11T22:20:03.934Z,4.22
2023-09-11T22:22:30.965Z,4.53
2023-09-11T22:24:57.670Z,4.57
2023-09-11T22:27:24.558Z,4.93
2023-09-11T22:29:51.916Z,4.70
2023-09-11T22:32:18.765Z,4.40
2023-09-11T22:34:45.785Z,4.85
2023-09-11T22:37:12.763Z,4.70
2023-09-11T22:39:39.423Z,4.63
2023-09-11T22:42:06.383Z,4.80
2023-09-11T22:44:34.434Z,4.72
2023-09-11T22:47:01.913Z,4.80
2023-09-11T22:49:29.404Z,5.07
2023-09-11T22:51:56.181Z,4.55
2023-09-11T22:54:23.726Z,4.45
2023-09-11T22:56:50.764Z,4.80
2023-09-11T22:59:17.578Z,4.32
2023-09-11T23:01:44.424Z,4.97
2023-09-11T23:04:11.483Z,5.00
2023-09-11T23:06:39.032Z,5.13
2023-09-11T23:09:08.538Z,4.70
2023-09-11T23:11:35.276Z,5.03
2023-09-11T23:14:02.021Z,4.70
2023-09-11T23:16:28.804Z,4.80
2023-09-11T23:18:55.646Z,4.97
2023-09-11T23:21:22.485Z,5.03
2023-09-11T23:23:50.642Z,4.72
2023-09-11T23:26:21.558Z,4.95
2023-09-11T23:28:48.335Z,5.00
2023-09-11T23:31:15.178Z,5.03
2023-09-11T23:33:42.215Z,5.45
2023-09-11T23:36:09.153Z,4.85
2023-09-11T23:38:37.862Z,5.10
2023-09-11T23:41:05.133Z,4.68
2023-09-11T23:43:34.156Z,4.60
2023-09-11T23:46:01.865Z,5.32
2023-09-11T23:48:28.741Z,5.20
2023-09-11T23:50:55.411Z,4.47
2023-09-11T23:53:22.136Z,5.15
2023-09-11T23:55:48.836Z,5.20
2023-09-11T23:58:15.610Z,5.13
